sensor_id;sensor_type;location;lat;lon;timestamp;temperature;humidity
30379;DHT22;17168;49.164;9.060;2023-03-19T00:00:40;16.50;60.20
30379;DHT22;17168;49.164;9.060;2023-03-19T00:03:12;16.40;64.60
30379;DHT22;17168;49.164;9.060;2023-03-19T00:05:50;16.10;61.10
30379;DHT22;17168;49.164;9.060;2023-03-19T00:08:22;15.80;65.70
30379;DHT22;17168;49.164;9.060;2023-03-19T00:10:57;15.50;60.00
30379;DHT22;17168;49.164;9.060;2023-03-19T00:13:29;15.20;60.40
30379;DHT22;17168;49.164;9.060;2023-03-19T00:16:01;15.00;60.70
30379;DHT22;17168;49.164;9.060;2023-03-19T00:18:33;14.80;76.00
30379;DHT22;17168;49.164;9.060;2023-03-19T00:21:06;14.60;67.20
30379;DHT22;17168;49.164;9.060;2023-03-19T00:23:38;14.30;64.20
30379;DHT22;17168;49.164;9.060;2023-03-19T00:26:12;14.20;76.10
30379;DHT22;17168;49.164;9.060;2023-03-19T00:28:44;13.90;92.00
30379;DHT22;17168;49.164;9.060;2023-03-19T00:31:16;13.80;66.70
30379;DHT22;17168;49.164;9.060;2023-03-19T00:33:49;13.50;63.10
30379;DHT22;17168;49.164;9.060;2023-03-19T00:36:21;13.30;63.40
30379;DHT22;17168;49.164;9.060;2023-03-19T00:38:54;13.20;63.70
30379;DHT22;17168;49.164;9.060;2023-03-19T00:41:29;13.20;81.60
30379;DHT22;17168;49.164;9.060;2023-03-19T00:44:01;13.10;69.70
30379;DHT22;17168;49.164;9.060;2023-03-19T00:51:40;12.90;81.40
30379;DHT22;17168;49.164;9.060;2023-03-19T00:54:14;12.60;65.20
30379;DHT22;17168;49.164;9.060;2023-03-19T00:56:49;12.50;65.90
30379;DHT22;17168;49.164;9.060;2023-03-19T01:04:28;12.40;70.60
30379;DHT22;17168;49.164;9.060;2023-03-19T01:07:00;12.30;68.60
30379;DHT22;17168;49.164;9.060;2023-03-19T01:09:32;12.20;69.00
30379;DHT22;17168;49.164;9.060;2023-03-19T01:12:09;12.10;68.30
30379;DHT22;17168;49.164;9.060;2023-03-19T01:14:41;12.00;67.80
30379;DHT22;17168;49.164;9.060;2023-03-19T01:17:13;11.90;68.30
30379;DHT22;17168;49.164;9.060;2023-03-19T01:19:45;11.90;68.90
30379;DHT22;17168;49.164;9.060;2023-03-19T01:22:18;11.90;69.90
30379;DHT22;17168;49.164;9.060;2023-03-19T01:24:50;11.90;69.50
30379;DHT22;17168;49.164;9.060;2023-03-19T01:27:25;11.90;70.10
30379;DHT22;17168;49.164;9.060;2023-03-19T01:29:57;11.90;71.70
30379;DHT22;17168;49.164;9.060;2023-03-19T01:32:29;12.30;90.20
30379;DHT22;17168;49.164;9.060;2023-03-19T01:35:02;12.00;89.70
30379;DHT22;17168;49.164;9.060;2023-03-19T01:37:34;11.90;91.30
30379;DHT22;17168;49.164;9.060;2023-03-19T01:42:53;11.70;70.30
30379;DHT22;17168;49.164;9.060;2023-03-19T01:45:34;11.60;70.10
30379;DHT22;17168;49.164;9.060;2023-03-19T01:48:15;11.60;70.20
30379;DHT22;17168;49.164;9.060;2023-03-19T01:50:49;11.50;70.40
30379;DHT22;17168;49.164;9.060;2023-03-19T01:53:28;11.50;72.10
30379;DHT22;17168;49.164;9.060;2023-03-19T01:56:05;11.60;82.10
30379;DHT22;17168;49.164;9.060;2023-03-19T01:58:43;11.50;85.50
30379;DHT22;17168;49.164;9.060;2023-03-19T02:01:17;11.50;82.70
30379;DHT22;17168;49.164;9.060;2023-03-19T02:03:51;11.50;79.90
30379;DHT22;17168;49.164;9.060;2023-03-19T02:06:24;11.60;80.00
30379;DHT22;17168;49.164;9.060;2023-03-19T02:08:56;11.60;80.10
30379;DHT22;17168;49.164;9.060;2023-03-19T02:11:30;11.60;80.10
30379;DHT22;17168;49.164;9.060;2023-03-19T02:14:05;11.50;80.00
30379;DHT22;17168;49.164;9.060;2023-03-19T02:16:37;11.50;80.10
30379;DHT22;17168;49.164;9.060;2023-03-19T02:19:13;11.50;80.10
30379;DHT22;17168;49.164;9.060;2023-03-19T02:21:47;11.50;80.30
30379;DHT22;17168;49.164;9.060;2023-03-19T02:24:24;11.50;80.30
30379;DHT22;17168;49.164;9.060;2023-03-19T02:26:59;11.50;80.40
30379;DHT22;17168;49.164;9.060;2023-03-19T02:29:31;11.50;80.60
30379;DHT22;17168;49.164;9.060;2023-03-19T02:32:04;11.50;80.60
30379;DHT22;17168;49.164;9.060;2023-03-19T02:34:37;11.50;80.80
30379;DHT22;17168;49.164;9.060;2023-03-19T02:37:14;11.50;81.00
30379;DHT22;17168;49.164;9.060;2023-03-19T02:39:50;11.50;81.20
30379;DHT22;17168;49.164;9.060;2023-03-19T02:42:28;11.50;81.20
30379;DHT22;17168;49.164;9.060;2023-03-19T02:45:00;11.50;81.50
30379;DHT22;17168;49.164;9.060;2023-03-19T02:47:33;11.50;81.60
30379;DHT22;17168;49.164;9.060;2023-03-19T02:50:06;11.60;81.90
30379;DHT22;17168;49.164;9.060;2023-03-19T02:52:38;11.60;81.90
30379;DHT22;17168;49.164;9.060;2023-03-19T02:55:11;11.60;82.20
30379;DHT22;17168;49.164;9.060;2023-03-19T02:57:46;11.60;82.40
30379;DHT22;17168;49.164;9.060;2023-03-19T03:00:18;11.60;82.60
30379;DHT22;17168;49.164;9.060;2023-03-19T03:02:51;11.60;82.70
30379;DHT22;17168;49.164;9.060;2023-03-19T03:05:23;11.60;82.90
30379;DHT22;17168;49.164;9.060;2023-03-19T03:07:56;11.60;82.90
30379;DHT22;17168;49.164;9.060;2023-03-19T03:10:29;11.60;83.00
30379;DHT22;17168;49.164;9.060;2023-03-19T03:13:04;11.60;83.10
30379;DHT22;17168;49.164;9.060;2023-03-19T03:15:36;11.60;83.40
30379;DHT22;17168;49.164;9.060;2023-03-19T03:18:08;11.60;83.40
30379;DHT22;17168;49.164;9.060;2023-03-19T03:20:40;11.60;83.60
30379;DHT22;17168;49.164;9.060;2023-03-19T03:23:12;11.60;83.70
30379;DHT22;17168;49.164;9.060;2023-03-19T03:25:47;11.60;83.90
30379;DHT22;17168;49.164;9.060;2023-03-19T03:28:22;11.60;84.10
30379;DHT22;17168;49.164;9.060;2023-03-19T03:30:57;11.50;84.10
30379;DHT22;17168;49.164;9.060;2023-03-19T03:33:30;11.50;84.30
30379;DHT22;17168;49.164;9.060;2023-03-19T03:36:02;11.50;84.20
30379;DHT22;17168;49.164;9.060;2023-03-19T03:38:35;11.50;84.30
30379;DHT22;17168;49.164;9.060;2023-03-19T03:41:07;11.50;84.50
30379;DHT22;17168;49.164;9.060;2023-03-19T03:43:42;11.50;84.60
30379;DHT22;17168;49.164;9.060;2023-03-19T03:46:14;11.40;84.70
30379;DHT22;17168;49.164;9.060;2023-03-19T03:48:46;11.40;84.80
30379;DHT22;17168;49.164;9.060;2023-03-19T03:51:20;11.30;85.10
30379;DHT22;17168;49.164;9.060;2023-03-19T03:53:53;11.30;85.30
30379;DHT22;17168;49.164;9.060;2023-03-19T03:56:24;11.30;85.60
30379;DHT22;17168;49.164;9.060;2023-03-19T03:58:59;11.30;85.70
30379;DHT22;17168;49.164;9.060;2023-03-19T04:01:32;11.30;85.60
30379;DHT22;17168;49.164;9.060;2023-03-19T04:04:04;11.30;85.40
30379;DHT22;17168;49.164;9.060;2023-03-19T04:06:36;11.30;85.40
30379;DHT22;17168;49.164;9.060;2023-03-19T04:09:08;11.20;85.30
30379;DHT22;17168;49.164;9.060;2023-03-19T04:11:41;11.20;85.10
30379;DHT22;17168;49.164;9.060;2023-03-19T04:14:15;11.20;85.30
30379;DHT22;17168;49.164;9.060;2023-03-19T04:16:48;11.20;85.60
30379;DHT22;17168;49.164;9.060;2023-03-19T04:19:20;11.20;85.90
30379;DHT22;17168;49.164;9.060;2023-03-19T04:21:52;11.20;86.20
30379;DHT22;17168;49.164;9.060;2023-03-19T04:24:24;11.20;86.50
30379;DHT22;17168;49.164;9.060;2023-03-19T04:26:56;11.10;86.70
30379;DHT22;17168;49.164;9.060;2023-03-19T04:29:31;11.10;87.30
30379;DHT22;17168;49.164;9.060;2023-03-19T04:32:04;11.10;88.30
30379;DHT22;17168;49.164;9.060;2023-03-19T04:34:36;11.10;88.40
30379;DHT22;17168;49.164;9.060;2023-03-19T04:37:08;11.20;88.70
30379;DHT22;17168;49.164;9.060;2023-03-19T04:39:44;11.20;89.10
30379;DHT22;17168;49.164;9.060;2023-03-19T04:42:16;11.20;89.30
30379;DHT22;17168;49.164;9.060;2023-03-19T04:44:50;11.20;89.60
30379;DHT22;17168;49.164;9.060;2023-03-19T04:47:23;11.10;90.00
30379;DHT22;17168;49.164;9.060;2023-03-19T04:49:55;11.10;90.10
30379;DHT22;17168;49.164;9.060;2023-03-19T04:52:27;11.10;90.30
30379;DHT22;17168;49.164;9.060;2023-03-19T04:55:00;11.10;90.50
30379;DHT22;17168;49.164;9.060;2023-03-19T04:57:32;11.10;90.60
30379;DHT22;17168;49.164;9.060;2023-03-19T05:00:09;11.10;90.70
30379;DHT22;17168;49.164;9.060;2023-03-19T05:02:41;11.10;90.90
30379;DHT22;17168;49.164;9.060;2023-03-19T05:05:14;11.10;91.10
30379;DHT22;17168;49.164;9.060;2023-03-19T05:07:46;11.10;91.30
30379;DHT22;17168;49.164;9.060;2023-03-19T05:10:18;11.10;91.50
30379;DHT22;17168;49.164;9.060;2023-03-19T05:12:50;11.10;91.60
30379;DHT22;17168;49.164;9.060;2023-03-19T05:15:25;11.10;91.90
30379;DHT22;17168;49.164;9.060;2023-03-19T05:17:57;11.10;92.20
30379;DHT22;17168;49.164;9.060;2023-03-19T05:20:29;11.10;92.80
30379;DHT22;17168;49.164;9.060;2023-03-19T05:23:01;11.50;94.60
30379;DHT22;17168;49.164;9.060;2023-03-19T05:25:33;11.10;94.00
30379;DHT22;17168;49.164;9.060;2023-03-19T05:28:08;11.10;94.10
30379;DHT22;17168;49.164;9.060;2023-03-19T05:30:43;11.10;94.60
30379;DHT22;17168;49.164;9.060;2023-03-19T05:33:15;11.10;95.30
30379;DHT22;17168;49.164;9.060;2023-03-19T05:35:48;11.10;95.50
30379;DHT22;17168;49.164;9.060;2023-03-19T05:38:20;11.10;94.80
30379;DHT22;17168;49.164;9.060;2023-03-19T05:40:53;11.10;95.00
30379;DHT22;17168;49.164;9.060;2023-03-19T05:43:25;11.10;95.00
30379;DHT22;17168;49.164;9.060;2023-03-19T05:46:00;11.10;95.10
30379;DHT22;17168;49.164;9.060;2023-03-19T05:48:32;11.10;95.50
30379;DHT22;17168;49.164;9.060;2023-03-19T05:51:05;11.10;95.70
30379;DHT22;17168;49.164;9.060;2023-03-19T05:53:37;11.10;95.50
30379;DHT22;17168;49.164;9.060;2023-03-19T05:56:09;11.10;95.30
30379;DHT22;17168;49.164;9.060;2023-03-19T05:58:41;11.10;95.10
30379;DHT22;17168;49.164;9.060;2023-03-19T06:01:16;11.10;95.00
30379;DHT22;17168;49.164;9.060;2023-03-19T06:03:48;11.20;95.10
30379;DHT22;17168;49.164;9.060;2023-03-19T06:06:20;11.20;95.20
30379;DHT22;17168;49.164;9.060;2023-03-19T06:08:52;11.20;95.10
30379;DHT22;17168;49.164;9.060;2023-03-19T06:11:24;11.20;95.10
30379;DHT22;17168;49.164;9.060;2023-03-19T06:13:57;11.20;95.20
30379;DHT22;17168;49.164;9.060;2023-03-19T06:16:32;11.20;95.30
30379;DHT22;17168;49.164;9.060;2023-03-19T06:19:04;11.20;95.40
30379;DHT22;17168;49.164;9.060;2023-03-19T06:21:36;11.20;95.40
30379;DHT22;17168;49.164;9.060;2023-03-19T06:24:08;11.30;95.50
30379;DHT22;17168;49.164;9.060;2023-03-19T06:26:40;11.30;95.60
30379;DHT22;17168;49.164;9.060;2023-03-19T06:29:12;11.30;95.80
30379;DHT22;17168;49.164;9.060;2023-03-19T06:31:47;11.30;95.80
30379;DHT22;17168;49.164;9.060;2023-03-19T06:34:19;11.40;96.00
30379;DHT22;17168;49.164;9.060;2023-03-19T06:36:51;11.40;96.30
30379;DHT22;17168;49.164;9.060;2023-03-19T06:39:24;11.40;96.60
30379;DHT22;17168;49.164;9.060;2023-03-19T06:41:56;11.40;97.00
30379;DHT22;17168;49.164;9.060;2023-03-19T06:44:28;11.50;97.30
30379;DHT22;17168;49.164;9.060;2023-03-19T06:47:03;11.50;98.00
30379;DHT22;17168;49.164;9.060;2023-03-19T06:49:35;11.60;97.70
30379;DHT22;17168;49.164;9.060;2023-03-19T06:52:08;11.60;96.60
30379;DHT22;17168;49.164;9.060;2023-03-19T06:54:40;11.60;96.50
30379;DHT22;17168;49.164;9.060;2023-03-19T06:57:12;11.60;96.60
30379;DHT22;17168;49.164;9.060;2023-03-19T06:59:44;11.60;96.60
30379;DHT22;17168;49.164;9.060;2023-03-19T07:02:19;11.70;96.70
30379;DHT22;17168;49.164;9.060;2023-03-19T07:04:57;11.70;96.70
30379;DHT22;17168;49.164;9.060;2023-03-19T07:07:32;11.80;96.80
30379;DHT22;17168;49.164;9.060;2023-03-19T07:10:09;11.80;96.80
30379;DHT22;17168;49.164;9.060;2023-03-19T07:12:46;11.80;96.80
30379;DHT22;17168;49.164;9.060;2023-03-19T07:15:22;11.80;97.00
30379;DHT22;17168;49.164;9.060;2023-03-19T07:18:03;11.90;97.10
30379;DHT22;17168;49.164;9.060;2023-03-19T07:20:39;11.90;97.40
30379;DHT22;17168;49.164;9.060;2023-03-19T07:23:15;12.00;97.20
30379;DHT22;17168;49.164;9.060;2023-03-19T07:25:48;12.00;97.20
30379;DHT22;17168;49.164;9.060;2023-03-19T07:28:20;12.00;97.40
30379;DHT22;17168;49.164;9.060;2023-03-19T07:30:53;12.10;97.40
30379;DHT22;17168;49.164;9.060;2023-03-19T07:33:29;12.20;97.40
30379;DHT22;17168;49.164;9.060;2023-03-19T07:36:01;12.20;97.50
30379;DHT22;17168;49.164;9.060;2023-03-19T07:38:33;12.20;97.50
30379;DHT22;17168;49.164;9.060;2023-03-19T07:41:05;12.30;97.60
30379;DHT22;17168;49.164;9.060;2023-03-19T07:43:37;12.30;97.60
30379;DHT22;17168;49.164;9.060;2023-03-19T07:46:09;12.30;97.90
30379;DHT22;17168;49.164;9.060;2023-03-19T07:48:45;12.40;97.80
30379;DHT22;17168;49.164;9.060;2023-03-19T07:51:17;12.50;97.80
30379;DHT22;17168;49.164;9.060;2023-03-19T07:53:49;12.50;97.80
30379;DHT22;17168;49.164;9.060;2023-03-19T07:56:21;12.50;97.90
30379;DHT22;17168;49.164;9.060;2023-03-19T07:58:53;12.60;97.90
30379;DHT22;17168;49.164;9.060;2023-03-19T08:01:25;12.60;98.00
30379;DHT22;17168;49.164;9.060;2023-03-19T08:04:00;12.70;98.10
30379;DHT22;17168;49.164;9.060;2023-03-19T08:06:33;12.80;98.20
30379;DHT22;17168;49.164;9.060;2023-03-19T08:09:05;12.90;99.40
30379;DHT22;17168;49.164;9.060;2023-03-19T08:11:37;12.90;99.80
30379;DHT22;17168;49.164;9.060;2023-03-19T08:14:09;13.00;99.90
30379;DHT22;17168;49.164;9.060;2023-03-19T08:16:41;13.10;99.90
30379;DHT22;17168;49.164;9.060;2023-03-19T08:19:16;13.10;99.90
30379;DHT22;17168;49.164;9.060;2023-03-19T08:21:49;13.20;99.90
30379;DHT22;17168;49.164;9.060;2023-03-19T08:24:22;13.20;99.90
30379;DHT22;17168;49.164;9.060;2023-03-19T08:26:54;13.30;99.90
30379;DHT22;17168;49.164;9.060;2023-03-19T08:29:26;13.30;99.90
30379;DHT22;17168;49.164;9.060;2023-03-19T08:31:58;13.40;99.90
30379;DHT22;17168;49.164;9.060;2023-03-19T08:34:34;13.40;99.90
30379;DHT22;17168;49.164;9.060;2023-03-19T08:37:07;13.50;99.90
30379;DHT22;17168;49.164;9.060;2023-03-19T08:39:39;13.60;99.90
30379;DHT22;17168;49.164;9.060;2023-03-19T08:42:11;13.60;99.90
30379;DHT22;17168;49.164;9.060;2023-03-19T08:44:43;13.60;99.90
30379;DHT22;17168;49.164;9.060;2023-03-19T09:00:06;13.80;99.90
30379;DHT22;17168;49.164;9.060;2023-03-19T09:02:38;13.90;99.90
30379;DHT22;17168;49.164;9.060;2023-03-19T09:05:14;14.00;99.90
30379;DHT22;17168;49.164;9.060;2023-03-19T09:07:46;14.00;99.90
30379;DHT22;17168;49.164;9.060;2023-03-19T09:10:18;14.00;99.90
30379;DHT22;17168;49.164;9.060;2023-03-19T09:12:50;14.10;99.90
30379;DHT22;17168;49.164;9.060;2023-03-19T09:15:22;14.10;99.90
30379;DHT22;17168;49.164;9.060;2023-03-19T09:17:54;14.20;99.90
30379;DHT22;17168;49.164;9.060;2023-03-19T09:20:28;14.20;99.90
30379;DHT22;17168;49.164;9.060;2023-03-19T09:23:01;14.30;99.90
30379;DHT22;17168;49.164;9.060;2023-03-19T09:25:33;14.30;99.90
30379;DHT22;17168;49.164;9.060;2023-03-19T09:28:05;14.40;99.90
30379;DHT22;17168;49.164;9.060;2023-03-19T09:30:37;14.40;99.90
30379;DHT22;17168;49.164;9.060;2023-03-19T09:33:10;14.50;99.90
30379;DHT22;17168;49.164;9.060;2023-03-19T09:35:48;14.50;99.70
30379;DHT22;17168;49.164;9.060;2023-03-19T09:38:21;14.50;99.50
30379;DHT22;17168;49.164;9.060;2023-03-19T09:41:04;14.60;99.70
30379;DHT22;17168;49.164;9.060;2023-03-19T09:43:56;14.60;99.80
30379;DHT22;17168;49.164;9.060;2023-03-19T09:46:37;14.70;99.90
30379;DHT22;17168;49.164;9.060;2023-03-19T09:51:59;14.50;99.90
30379;DHT22;17168;49.164;9.060;2023-03-19T09:54:41;14.90;99.90
30379;DHT22;17168;49.164;9.060;2023-03-19T09:57:14;14.90;99.90
30379;DHT22;17168;49.164;9.060;2023-03-19T09:59:48;15.00;98.80
30379;DHT22;17168;49.164;9.060;2023-03-19T10:02:32;15.00;97.40
30379;DHT22;17168;49.164;9.060;2023-03-19T10:05:18;15.10;98.00
30379;DHT22;17168;49.164;9.060;2023-03-19T10:08:09;15.20;98.60
30379;DHT22;17168;49.164;9.060;2023-03-19T10:10:49;15.30;99.50
30379;DHT22;17168;49.164;9.060;2023-03-19T10:16:00;15.50;99.90
30379;DHT22;17168;49.164;9.060;2023-03-19T10:18:34;15.50;93.60
30379;DHT22;17168;49.164;9.060;2023-03-19T10:21:12;15.60;93.40
30379;DHT22;17168;49.164;9.060;2023-03-19T10:23:52;15.60;93.20
30379;DHT22;17168;49.164;9.060;2023-03-19T10:26:29;15.70;92.80
30379;DHT22;17168;49.164;9.060;2023-03-19T10:29:05;15.80;92.90
30379;DHT22;17168;49.164;9.060;2023-03-19T10:31:43;15.90;94.40
30379;DHT22;17168;49.164;9.060;2023-03-19T10:34:31;15.90;91.80
30379;DHT22;17168;49.164;9.060;2023-03-19T10:37:05;16.00;91.50
30379;DHT22;17168;49.164;9.060;2023-03-19T10:39:48;16.10;92.40
30379;DHT22;17168;49.164;9.060;2023-03-19T10:42:37;16.20;92.70
30379;DHT22;17168;49.164;9.060;2023-03-19T10:45:19;16.30;91.20
30379;DHT22;17168;49.164;9.060;2023-03-19T10:47:52;16.40;86.70
30379;DHT22;17168;49.164;9.060;2023-03-19T10:50:28;16.50;85.00
30379;DHT22;17168;49.164;9.060;2023-03-19T10:53:04;16.60;84.40
30379;DHT22;17168;49.164;9.060;2023-03-19T10:55:45;16.70;84.30
30379;DHT22;17168;49.164;9.060;2023-03-19T10:58:20;16.70;84.30
30379;DHT22;17168;49.164;9.060;2023-03-19T11:00:56;16.80;84.30
30379;DHT22;17168;49.164;9.060;2023-03-19T11:03:30;16.90;84.50
30379;DHT22;17168;49.164;9.060;2023-03-19T11:06:05;16.90;85.20
30379;DHT22;17168;49.164;9.060;2023-03-19T11:08:38;17.00;87.10
30379;DHT22;17168;49.164;9.060;2023-03-19T11:11:25;17.10;86.70
30379;DHT22;17168;49.164;9.060;2023-03-19T11:13:58;17.10;87.50
30379;DHT22;17168;49.164;9.060;2023-03-19T11:16:50;17.20;89.10
30379;DHT22;17168;49.164;9.060;2023-03-19T11:19:24;17.30;90.70
30379;DHT22;17168;49.164;9.060;2023-03-19T11:22:02;17.40;90.20
30379;DHT22;17168;49.164;9.060;2023-03-19T11:24:39;17.40;91.40
30379;DHT22;17168;49.164;9.060;2023-03-19T11:27:14;17.50;90.50
30379;DHT22;17168;49.164;9.060;2023-03-19T11:29:46;17.80;93.30
30379;DHT22;17168;49.164;9.060;2023-03-19T11:32:31;17.60;93.00
30379;DHT22;17168;49.164;9.060;2023-03-19T11:35:10;17.70;91.80
30379;DHT22;17168;49.164;9.060;2023-03-19T11:37:52;17.80;87.20
30379;DHT22;17168;49.164;9.060;2023-03-19T11:40:33;17.80;80.20
30379;DHT22;17168;49.164;9.060;2023-03-19T11:43:48;17.90;79.60
30379;DHT22;17168;49.164;9.060;2023-03-19T11:46:29;18.00;82.30
30379;DHT22;17168;49.164;9.060;2023-03-19T11:49:34;18.10;81.20
30379;DHT22;17168;49.164;9.060;2023-03-19T11:52:13;18.30;84.20
30379;DHT22;17168;49.164;9.060;2023-03-19T11:54:56;18.40;87.90
30379;DHT22;17168;49.164;9.060;2023-03-19T11:57:46;18.60;81.00
30379;DHT22;17168;49.164;9.060;2023-03-19T12:19:53;19.70;92.40
30379;DHT22;17168;49.164;9.060;2023-03-19T12:25:18;20.00;92.80
30379;DHT22;17168;49.164;9.060;2023-03-19T12:27:54;20.20;82.20
30379;DHT22;17168;49.164;9.060;2023-03-19T12:30:33;20.40;83.30
30379;DHT22;17168;49.164;9.060;2023-03-19T12:33:27;20.50;80.10
30379;DHT22;17168;49.164;9.060;2023-03-19T12:38:43;20.60;93.70
30379;DHT22;17168;49.164;9.060;2023-03-19T12:41:21;20.90;79.50
30379;DHT22;17168;49.164;9.060;2023-03-19T12:51:16;20.50;77.30
30379;DHT22;17168;49.164;9.060;2023-03-19T12:53:55;20.20;76.30
30379;DHT22;17168;49.164;9.060;2023-03-19T12:56:38;20.00;76.40
30379;DHT22;17168;49.164;9.060;2023-03-19T12:59:18;19.80;78.60
30379;DHT22;17168;49.164;9.060;2023-03-19T13:02:10;19.60;75.70
30379;DHT22;17168;49.164;9.060;2023-03-19T13:36:11;18.30;77.50
30379;DHT22;17168;49.164;9.060;2023-03-19T13:39:50;18.60;78.90
30379;DHT22;17168;49.164;9.060;2023-03-19T13:46:39;18.50;78.20
30379;DHT22;17168;49.164;9.060;2023-03-19T13:49:26;18.30;77.60
30379;DHT22;17168;49.164;9.060;2023-03-19T13:55:43;18.10;78.40
30379;DHT22;17168;49.164;9.060;2023-03-19T13:58:24;18.00;77.20
30379;DHT22;17168;49.164;9.060;2023-03-19T14:01:37;17.90;78.30
30379;DHT22;17168;49.164;9.060;2023-03-19T14:04:19;17.80;77.30
30379;DHT22;17168;49.164;9.060;2023-03-19T14:06:54;17.80;78.90
30379;DHT22;17168;49.164;9.060;2023-03-19T14:09:38;17.70;77.60
30379;DHT22;17168;49.164;9.060;2023-03-19T14:12:28;17.70;77.30
30379;DHT22;17168;49.164;9.060;2023-03-19T14:15:13;17.60;78.50
30379;DHT22;17168;49.164;9.060;2023-03-19T14:17:54;17.60;84.00
30379;DHT22;17168;49.164;9.060;2023-03-19T14:20:34;17.40;76.70
30379;DHT22;17168;49.164;9.060;2023-03-19T14:23:19;17.40;77.90
30379;DHT22;17168;49.164;9.060;2023-03-19T14:26:16;17.30;80.70
30379;DHT22;17168;49.164;9.060;2023-03-19T14:28:55;17.30;85.90
30379;DHT22;17168;49.164;9.060;2023-03-19T14:31:32;17.20;80.60
30379;DHT22;17168;49.164;9.060;2023-03-19T14:34:11;17.10;79.50
30379;DHT22;17168;49.164;9.060;2023-03-19T14:36:50;17.10;79.50
30379;DHT22;17168;49.164;9.060;2023-03-19T14:39:27;17.00;79.60
30379;DHT22;17168;49.164;9.060;2023-03-19T14:42:12;17.00;79.60
30379;DHT22;17168;49.164;9.060;2023-03-19T14:45:19;17.00;79.60
30379;DHT22;17168;49.164;9.060;2023-03-19T14:50:41;16.90;79.90
30379;DHT22;17168;49.164;9.060;2023-03-19T14:53:21;16.90;80.50
30379;DHT22;17168;49.164;9.060;2023-03-19T14:55:56;16.90;80.00
30379;DHT22;17168;49.164;9.060;2023-03-19T14:58:35;17.00;80.10
30379;DHT22;17168;49.164;9.060;2023-03-19T15:01:07;17.00;79.90
30379;DHT22;17168;49.164;9.060;2023-03-19T15:03:39;17.10;79.90
30379;DHT22;17168;49.164;9.060;2023-03-19T15:06:12;17.10;79.70
30379;DHT22;17168;49.164;9.060;2023-03-19T15:08:45;17.10;79.70
30379;DHT22;17168;49.164;9.060;2023-03-19T15:11:23;17.00;79.30
30379;DHT22;17168;49.164;9.060;2023-03-19T15:14:04;17.00;79.30
30379;DHT22;17168;49.164;9.060;2023-03-19T15:16:41;17.00;79.20
30379;DHT22;17168;49.164;9.060;2023-03-19T15:19:17;17.00;79.30
30379;DHT22;17168;49.164;9.060;2023-03-19T15:22:02;16.90;79.30
30379;DHT22;17168;49.164;9.060;2023-03-19T15:24:33;16.90;79.40
30379;DHT22;17168;49.164;9.060;2023-03-19T15:27:16;16.90;79.50
30379;DHT22;17168;49.164;9.060;2023-03-19T15:29:51;17.00;79.50
30379;DHT22;17168;49.164;9.060;2023-03-19T15:32:30;17.00;79.50
30379;DHT22;17168;49.164;9.060;2023-03-19T15:35:23;17.10;79.40
30379;DHT22;17168;49.164;9.060;2023-03-19T15:37:58;17.30;79.30
30379;DHT22;17168;49.164;9.060;2023-03-19T15:40:30;17.30;78.90
30379;DHT22;17168;49.164;9.060;2023-03-19T15:43:03;17.30;78.80
30379;DHT22;17168;49.164;9.060;2023-03-19T15:45:38;17.30;78.90
30379;DHT22;17168;49.164;9.060;2023-03-19T15:48:13;17.30;78.70
30379;DHT22;17168;49.164;9.060;2023-03-19T15:50:48;17.20;78.60
30379;DHT22;17168;49.164;9.060;2023-03-19T15:53:21;17.20;78.50
30379;DHT22;17168;49.164;9.060;2023-03-19T15:55:54;17.10;78.60
30379;DHT22;17168;49.164;9.060;2023-03-19T15:58:27;17.00;78.70
30379;DHT22;17168;49.164;9.060;2023-03-19T16:01:04;16.90;78.80
30379;DHT22;17168;49.164;9.060;2023-03-19T16:03:38;16.90;79.00
30379;DHT22;17168;49.164;9.060;2023-03-19T16:06:12;16.90;79.10
30379;DHT22;17168;49.164;9.060;2023-03-19T16:08:45;16.90;79.30
30379;DHT22;17168;49.164;9.060;2023-03-19T16:11:25;16.90;79.30
30379;DHT22;17168;49.164;9.060;2023-03-19T16:13:58;16.90;79.10
30379;DHT22;17168;49.164;9.060;2023-03-19T16:16:33;16.90;79.10
30379;DHT22;17168;49.164;9.060;2023-03-19T16:21:52;16.80;78.90
30379;DHT22;17168;49.164;9.060;2023-03-19T16:24:26;16.80;79.00
30379;DHT22;17168;49.164;9.060;2023-03-19T16:27:01;16.80;78.90
30379;DHT22;17168;49.164;9.060;2023-03-19T16:29:35;16.80;78.90
30379;DHT22;17168;49.164;9.060;2023-03-19T16:32:18;16.80;78.90
30379;DHT22;17168;49.164;9.060;2023-03-19T16:34:50;16.70;79.00
30379;DHT22;17168;49.164;9.060;2023-03-19T16:37:41;16.70;79.40
30379;DHT22;17168;49.164;9.060;2023-03-19T16:43:21;16.60;79.00
30379;DHT22;17168;49.164;9.060;2023-03-19T16:46:03;16.60;76.00
30379;DHT22;17168;49.164;9.060;2023-03-19T16:48:39;16.60;76.20
30379;DHT22;17168;49.164;9.060;2023-03-19T16:51:13;16.60;75.40
30379;DHT22;17168;49.164;9.060;2023-03-19T16:53:48;16.50;75.50
30379;DHT22;17168;49.164;9.060;2023-03-19T16:56:21;16.60;75.40
30379;DHT22;17168;49.164;9.060;2023-03-19T16:58:53;16.50;75.40
30379;DHT22;17168;49.164;9.060;2023-03-19T17:01:25;16.50;75.60
30379;DHT22;17168;49.164;9.060;2023-03-19T17:04:00;16.50;75.90
30379;DHT22;17168;49.164;9.060;2023-03-19T17:06:32;16.40;76.40
30379;DHT22;17168;49.164;9.060;2023-03-19T17:09:05;16.40;77.20
30379;DHT22;17168;49.164;9.060;2023-03-19T17:11:44;16.30;77.90
30379;DHT22;17168;49.164;9.060;2023-03-19T17:14:19;16.30;78.00
30379;DHT22;17168;49.164;9.060;2023-03-19T17:16:51;16.20;78.50
30379;DHT22;17168;49.164;9.060;2023-03-19T17:19:28;16.10;80.50
30379;DHT22;17168;49.164;9.060;2023-03-19T17:22:03;16.10;81.60
30379;DHT22;17168;49.164;9.060;2023-03-19T17:24:35;16.10;82.40
30379;DHT22;17168;49.164;9.060;2023-03-19T17:27:08;16.00;84.30
30379;DHT22;17168;49.164;9.060;2023-03-19T17:29:41;16.00;87.40
30379;DHT22;17168;49.164;9.060;2023-03-19T17:47:48;15.80;92.80
30379;DHT22;17168;49.164;9.060;2023-03-19T17:50:26;15.30;90.20
30379;DHT22;17168;49.164;9.060;2023-03-19T17:52:59;15.20;92.00
30379;DHT22;17168;49.164;9.060;2023-03-19T17:55:31;15.10;91.20
30379;DHT22;17168;49.164;9.060;2023-03-19T17:58:03;15.00;91.10
30379;DHT22;17168;49.164;9.060;2023-03-19T18:00:35;14.80;91.40
30379;DHT22;17168;49.164;9.060;2023-03-19T18:03:12;14.70;89.30
30379;DHT22;17168;49.164;9.060;2023-03-19T18:05:47;14.60;87.80
30379;DHT22;17168;49.164;9.060;2023-03-19T18:08:21;14.60;87.10
30379;DHT22;17168;49.164;9.060;2023-03-19T18:10:56;14.50;87.10
30379;DHT22;17168;49.164;9.060;2023-03-19T18:13:28;14.50;87.00
30379;DHT22;17168;49.164;9.060;2023-03-19T18:16:00;14.40;86.90
30379;DHT22;17168;49.164;9.060;2023-03-19T18:18:32;14.40;87.50
30379;DHT22;17168;49.164;9.060;2023-03-19T18:21:08;14.40;87.70
30379;DHT22;17168;49.164;9.060;2023-03-19T18:23:42;14.30;88.40
30379;DHT22;17168;49.164;9.060;2023-03-19T18:26:14;14.30;89.40
30379;DHT22;17168;49.164;9.060;2023-03-19T18:28:47;14.30;89.80